sensor_id;sensor_type;location;lat;lon;timestamp;P1;durP1;ratioP1;P2;durP2;ratioP2
41546;SDS011;27271;45.412;10.852;2023-10-08T04:05:30;3.28;;;1.90;;
41546;SDS011;27271;45.412;10.852;2023-10-08T04:09:11;4.35;;;2.85;;
41546;SDS011;27271;45.412;10.852;2023-10-08T04:12:39;2.85;;;2.53;;
41546;SDS011;27271;45.412;10.852;2023-10-08T04:16:05;2.92;;;1.35;;
41546;SDS011;27271;45.412;10.852;2023-10-08T04:19:29;5.32;;;2.50;;
41546;SDS011;27271;45.412;10.852;2023-10-08T04:22:52;3.13;;;1.50;;
41546;SDS011;27271;45.412;10.852;2023-10-08T04:26:16;3.92;;;2.58;;
41546;SDS011;27271;45.412;10.852;2023-10-08T04:29:40;2.42;;;1.70;;
41546;SDS011;27271;45.412;10.852;2023-10-08T04:33:04;2.83;;;1.98;;
41546;SDS011;27271;45.412;10.852;2023-10-08T04:36:34;2.22;;;1.58;;
41546;SDS011;27271;45.412;10.852;2023-10-08T04:40:00;4.97;;;2.05;;
41546;SDS011;27271;45.412;10.852;2023-10-08T04:43:25;7.72;;;2.45;;
41546;SDS011;27271;45.412;10.852;2023-10-08T04:46:49;4.22;;;1.65;;
41546;SDS011;27271;45.412;10.852;2023-10-08T04:50:19;6.35;;;2.63;;
41546;SDS011;27271;45.412;10.852;2023-10-08T04:53:51;2.00;;;1.20;;
41546;SDS011;27271;45.412;10.852;2023-10-08T04:57:29;1.83;;;1.27;;
41546;SDS011;27271;45.412;10.852;2023-10-08T05:00:53;4.45;;;2.22;;
41546;SDS011;27271;45.412;10.852;2023-10-08T05:04:37;5.18;;;1.65;;
41546;SDS011;27271;45.412;10.852;2023-10-08T05:08:19;1.75;;;1.65;;
41546;SDS011;27271;45.412;10.852;2023-10-08T05:11:58;4.05;;;2.58;;
41546;SDS011;27271;45.412;10.852;2023-10-08T05:16:18;1.38;;;0.85;;
41546;SDS011;27271;45.412;10.852;2023-10-08T05:19:54;4.60;;;3.00;;
41546;SDS011;27271;45.412;10.852;2023-10-08T05:23:53;3.22;;;1.58;;
41546;SDS011;27271;45.412;10.852;2023-10-08T05:27:36;3.13;;;2.33;;
41546;SDS011;27271;45.412;10.852;2023-10-08T05:31:16;2.30;;;1.40;;
41546;SDS011;27271;45.412;10.852;2023-10-08T05:35:01;1.85;;;1.10;;
41546;SDS011;27271;45.412;10.852;2023-10-08T05:38:46;2.78;;;1.75;;
41546;SDS011;27271;45.412;10.852;2023-10-08T05:42:22;1.67;;;1.58;;
41546;SDS011;27271;45.412;10.852;2023-10-08T05:46:11;3.72;;;2.25;;
41546;SDS011;27271;45.412;10.852;2023-10-08T05:49:45;1.58;;;1.10;;
41546;SDS011;27271;45.412;10.852;2023-10-08T05:53:31;0.82;;;0.82;;
41546;SDS011;27271;45.412;10.852;2023-10-08T05:57:07;8.95;;;1.55;;
41546;SDS011;27271;45.412;10.852;2023-10-08T06:00:34;0.95;;;0.88;;
41546;SDS011;27271;45.412;10.852;2023-10-08T06:03:57;1.30;;;1.08;;
41546;SDS011;27271;45.412;10.852;2023-10-08T06:07:30;1.50;;;1.25;;
41546;SDS011;27271;45.412;10.852;2023-10-08T06:11:09;1.45;;;1.33;;
41546;SDS011;27271;45.412;10.852;2023-10-08T06:14:49;0.90;;;0.90;;
41546;SDS011;27271;45.412;10.852;2023-10-08T06:18:32;1.55;;;0.90;;
41546;SDS011;27271;45.412;10.852;2023-10-08T06:21:56;3.33;;;1.88;;
41546;SDS011;27271;45.412;10.852;2023-10-08T06:25:19;2.70;;;0.77;;
41546;SDS011;27271;45.412;10.852;2023-10-08T06:28:45;2.63;;;0.80;;
41546;SDS011;27271;45.412;10.852;2023-10-08T06:32:08;2.75;;;1.60;;
41546;SDS011;27271;45.412;10.852;2023-10-08T06:35:34;1.85;;;0.93;;
41546;SDS011;27271;45.412;10.852;2023-10-08T06:39:00;1.77;;;0.70;;
41546;SDS011;27271;45.412;10.852;2023-10-08T06:42:25;3.17;;;2.08;;
41546;SDS011;27271;45.412;10.852;2023-10-08T06:45:51;2.30;;;1.65;;
41546;SDS011;27271;45.412;10.852;2023-10-08T06:49:14;1.45;;;1.35;;
41546;SDS011;27271;45.412;10.852;2023-10-08T06:52:55;1.23;;;0.57;;
41546;SDS011;27271;45.412;10.852;2023-10-08T06:56:17;0.88;;;0.80;;
41546;SDS011;27271;45.412;10.852;2023-10-08T06:59:44;1.98;;;1.13;;
41546;SDS011;27271;45.412;10.852;2023-10-08T07:03:08;1.15;;;0.98;;
41546;SDS011;27271;45.412;10.852;2023-10-08T07:06:41;0.65;;;0.65;;
41546;SDS011;27271;45.412;10.852;2023-10-08T07:10:10;2.15;;;1.02;;
41546;SDS011;27271;45.412;10.852;2023-10-08T07:13:33;1.60;;;1.25;;
41546;SDS011;27271;45.412;10.852;2023-10-08T07:17:01;7.45;;;1.80;;
41546;SDS011;27271;45.412;10.852;2023-10-08T07:20:30;1.13;;;0.57;;
41546;SDS011;27271;45.412;10.852;2023-10-08T07:23:56;3.00;;;2.05;;
41546;SDS011;27271;45.412;10.852;2023-10-08T07:31:01;2.10;;;0.60;;
41546;SDS011;27271;45.412;10.852;2023-10-08T07:34:24;2.35;;;1.17;;
41546;SDS011;27271;45.412;10.852;2023-10-08T07:37:46;1.95;;;0.65;;
41546;SDS011;27271;45.412;10.852;2023-10-08T07:41:11;0.80;;;0.60;;
41546;SDS011;27271;45.412;10.852;2023-10-08T07:44:36;1.63;;;1.17;;
41546;SDS011;27271;45.412;10.852;2023-10-08T07:48:01;0.80;;;0.70;;
41546;SDS011;27271;45.412;10.852;2023-10-08T07:51:29;3.78;;;1.30;;
41546;SDS011;27271;45.412;10.852;2023-10-08T07:54:51;1.08;;;0.60;;
41546;SDS011;27271;45.412;10.852;2023-10-08T07:58:15;1.10;;;0.90;;
41546;SDS011;27271;45.412;10.852;2023-10-08T08:01:37;1.90;;;1.17;;
41546;SDS011;27271;45.412;10.852;2023-10-08T08:05:00;1.83;;;0.75;;
41546;SDS011;27271;45.412;10.852;2023-10-08T08:08:25;1.95;;;1.15;;
41546;SDS011;27271;45.412;10.852;2023-10-08T08:11:51;2.22;;;1.38;;
41546;SDS011;27271;45.412;10.852;2023-10-08T08:15:22;3.47;;;0.95;;
41546;SDS011;27271;45.412;10.852;2023-10-08T08:18:48;3.85;;;1.38;;
41546;SDS011;27271;45.412;10.852;2023-10-08T08:22:14;1.88;;;1.65;;
41546;SDS011;27271;45.412;10.852;2023-10-08T08:25:44;4.07;;;0.90;;
41546;SDS011;27271;45.412;10.852;2023-10-08T08:29:29;1.10;;;0.75;;
41546;SDS011;27271;45.412;10.852;2023-10-08T08:32:51;2.45;;;0.75;;
41546;SDS011;27271;45.412;10.852;2023-10-08T08:36:14;2.25;;;1.33;;
41546;SDS011;27271;45.412;10.852;2023-10-08T08:39:37;1.65;;;1.02;;
41546;SDS011;27271;45.412;10.852;2023-10-08T08:43:00;21.00;;;10.00;;
41546;SDS011;27271;45.412;10.852;2023-10-08T08:46:36;2.95;;;2.75;;
41546;SDS011;27271;45.412;10.852;2023-10-08T08:50:00;2.13;;;1.10;;
41546;SDS011;27271;45.412;10.852;2023-10-08T08:53:30;4.28;;;1.65;;
41546;SDS011;27271;45.412;10.852;2023-10-08T08:56:54;6.35;;;3.28;;
41546;SDS011;27271;45.412;10.852;2023-10-08T09:00:20;1.85;;;0.93;;
41546;SDS011;27271;45.412;10.852;2023-10-08T09:03:46;6.28;;;2.13;;
41546;SDS011;27271;45.412;10.852;2023-10-08T09:07:12;5.95;;;1.88;;
41546;SDS011;27271;45.412;10.852;2023-10-08T09:10:45;1.83;;;1.30;;
41546;SDS011;27271;45.412;10.852;2023-10-08T09:14:15;9.75;;;1.40;;
41546;SDS011;27271;45.412;10.852;2023-10-08T09:17:41;9.02;;;2.05;;
41546;SDS011;27271;45.412;10.852;2023-10-08T09:21:13;5.25;;;3.03;;
41546;SDS011;27271;45.412;10.852;2023-10-08T09:24:41;2.78;;;1.88;;
41546;SDS011;27271;45.412;10.852;2023-10-08T09:28:09;1.88;;;1.30;;
41546;SDS011;27271;45.412;10.852;2023-10-08T09:32:19;6.65;;;3.00;;
41546;SDS011;27271;45.412;10.852;2023-10-08T09:35:37;1.98;;;1.42;;
41546;SDS011;27271;45.412;10.852;2023-10-08T09:39:22;1.48;;;1.08;;
41546;SDS011;27271;45.412;10.852;2023-10-08T09:42:45;2.42;;;1.23;;
41546;SDS011;27271;45.412;10.852;2023-10-08T09:49:50;7.38;;;1.38;;
41546;SDS011;27271;45.412;10.852;2023-10-08T09:53:28;2.10;;;1.60;;
41546;SDS011;27271;45.412;10.852;2023-10-08T09:57:03;2.05;;;1.13;;
41546;SDS011;27271;45.412;10.852;2023-10-08T10:00:28;5.63;;;1.58;;
41546;SDS011;27271;45.412;10.852;2023-10-08T10:03:52;2.03;;;1.13;;
41546;SDS011;27271;45.412;10.852;2023-10-08T10:07:14;2.10;;;1.17;;
41546;SDS011;27271;45.412;10.852;2023-10-08T10:10:38;2.70;;;1.00;;
41546;SDS011;27271;45.412;10.852;2023-10-08T10:14:02;1.70;;;1.27;;
41546;SDS011;27271;45.412;10.852;2023-10-08T10:17:28;2.08;;;1.50;;
41546;SDS011;27271;45.412;10.852;2023-10-08T10:21:28;2.53;;;1.20;;
41546;SDS011;27271;45.412;10.852;2023-10-08T10:24:53;3.55;;;1.13;;
41546;SDS011;27271;45.412;10.852;2023-10-08T10:28:25;2.60;;;1.08;;
41546;SDS011;27271;45.412;10.852;2023-10-08T10:31:53;3.22;;;1.02;;
41546;SDS011;27271;45.412;10.852;2023-10-08T10:35:18;0.98;;;0.98;;
41546;SDS011;27271;45.412;10.852;2023-10-08T10:38:41;1.58;;;1.20;;
41546;SDS011;27271;45.412;10.852;2023-10-08T10:42:04;1.38;;;0.80;;
41546;SDS011;27271;45.412;10.852;2023-10-08T10:45:28;0.75;;;0.75;;
41546;SDS011;27271;45.412;10.852;2023-10-08T10:49:17;2.15;;;1.10;;
41546;SDS011;27271;45.412;10.852;2023-10-08T10:52:43;2.30;;;1.30;;
41546;SDS011;27271;45.412;10.852;2023-10-08T10:56:06;3.38;;;1.45;;
41546;SDS011;27271;45.412;10.852;2023-10-08T10:59:31;2.28;;;1.08;;
41546;SDS011;27271;45.412;10.852;2023-10-08T11:03:04;3.05;;;1.45;;
41546;SDS011;27271;45.412;10.852;2023-10-08T11:06:39;0.73;;;0.68;;
41546;SDS011;27271;45.412;10.852;2023-10-08T11:10:01;3.20;;;1.30;;
41546;SDS011;27271;45.412;10.852;2023-10-08T11:13:27;2.47;;;1.60;;
41546;SDS011;27271;45.412;10.852;2023-10-08T11:16:55;3.15;;;1.50;;
41546;SDS011;27271;45.412;10.852;2023-10-08T11:23:52;1.90;;;1.40;;
41546;SDS011;27271;45.412;10.852;2023-10-08T11:27:16;2.92;;;1.90;;
41546;SDS011;27271;45.412;10.852;2023-10-08T11:30:50;5.30;;;2.35;;
41546;SDS011;27271;45.412;10.852;2023-10-08T11:34:15;3.75;;;1.63;;
41546;SDS011;27271;45.412;10.852;2023-10-08T11:37:46;3.70;;;1.42;;
41546;SDS011;27271;45.412;10.852;2023-10-08T11:41:14;3.50;;;1.38;;
41546;SDS011;27271;45.412;10.852;2023-10-08T11:44:43;3.88;;;2.03;;
41546;SDS011;27271;45.412;10.852;2023-10-08T11:48:06;2.95;;;1.63;;
41546;SDS011;27271;45.412;10.852;2023-10-08T11:51:35;2.63;;;1.60;;
41546;SDS011;27271;45.412;10.852;2023-10-08T11:54:57;4.85;;;2.05;;
41546;SDS011;27271;45.412;10.852;2023-10-08T11:58:19;8.90;;;2.05;;
41546;SDS011;27271;45.412;10.852;2023-10-08T12:01:50;3.75;;;1.70;;
41546;SDS011;27271;45.412;10.852;2023-10-08T12:05:23;3.97;;;1.30;;
41546;SDS011;27271;45.412;10.852;2023-10-08T12:08:47;4.05;;;2.05;;
41546;SDS011;27271;45.412;10.852;2023-10-08T12:12:15;5.10;;;1.50;;
41546;SDS011;27271;45.412;10.852;2023-10-08T12:15:42;4.57;;;2.10;;
41546;SDS011;27271;45.412;10.852;2023-10-08T12:19:06;3.55;;;2.03;;
41546;SDS011;27271;45.412;10.852;2023-10-08T12:22:38;24.48;;;2.65;;
41546;SDS011;27271;45.412;10.852;2023-10-08T12:26:00;3.03;;;2.33;;
41546;SDS011;27271;45.412;10.852;2023-10-08T12:29:27;6.90;;;2.42;;
41546;SDS011;27271;45.412;10.852;2023-10-08T12:32:50;4.72;;;2.35;;
41546;SDS011;27271;45.412;10.852;2023-10-08T12:36:22;2.90;;;2.47;;
41546;SDS011;27271;45.412;10.852;2023-10-08T12:39:45;4.03;;;2.50;;
41546;SDS011;27271;45.412;10.852;2023-10-08T12:43:36;5.25;;;2.28;;
41546;SDS011;27271;45.412;10.852;2023-10-08T12:47:25;6.35;;;2.05;;
41546;SDS011;27271;45.412;10.852;2023-10-08T12:50:51;2.72;;;2.35;;
41546;SDS011;27271;45.412;10.852;2023-10-08T12:54:21;3.83;;;1.92;;
41546;SDS011;27271;45.412;10.852;2023-10-08T12:57:54;2.65;;;1.50;;
41546;SDS011;27271;45.412;10.852;2023-10-08T13:01:20;6.97;;;2.05;;
41546;SDS011;27271;45.412;10.852;2023-10-08T13:04:42;5.22;;;2.22;;
41546;SDS011;27271;45.412;10.852;2023-10-08T13:08:07;4.28;;;2.40;;
41546;SDS011;27271;45.412;10.852;2023-10-08T13:11:31;4.35;;;2.08;;
41546;SDS011;27271;45.412;10.852;2023-10-08T13:14:56;4.03;;;2.17;;
41546;SDS011;27271;45.412;10.852;2023-10-08T13:18:18;4.10;;;2.08;;
41546;SDS011;27271;45.412;10.852;2023-10-08T13:21:41;6.75;;;3.30;;
41546;SDS011;27271;45.412;10.852;2023-10-08T13:25:06;5.57;;;2.15;;
41546;SDS011;27271;45.412;10.852;2023-10-08T13:28:31;5.00;;;2.95;;
41546;SDS011;27271;45.412;10.852;2023-10-08T13:32:00;5.57;;;2.75;;
41546;SDS011;27271;45.412;10.852;2023-10-08T13:35:26;3.25;;;1.75;;
41546;SDS011;27271;45.412;10.852;2023-10-08T13:38:50;4.47;;;1.92;;
41546;SDS011;27271;45.412;10.852;2023-10-08T13:42:20;3.30;;;2.03;;
41546;SDS011;27271;45.412;10.852;2023-10-08T13:45:51;5.32;;;2.05;;
41546;SDS011;27271;45.412;10.852;2023-10-08T13:49:17;4.65;;;2.70;;
41546;SDS011;27271;45.412;10.852;2023-10-08T13:52:54;3.35;;;2.00;;
41546;SDS011;27271;45.412;10.852;2023-10-08T13:56:18;5.90;;;2.78;;
41546;SDS011;27271;45.412;10.852;2023-10-08T14:00:11;7.28;;;2.90;;
41546;SDS011;27271;45.412;10.852;2023-10-08T14:03:40;5.65;;;2.38;;
41546;SDS011;27271;45.412;10.852;2023-10-08T14:07:03;9.50;;;3.47;;
41546;SDS011;27271;45.412;10.852;2023-10-08T14:10:26;5.78;;;3.13;;
41546;SDS011;27271;45.412;10.852;2023-10-08T14:13:54;4.00;;;2.55;;
41546;SDS011;27271;45.412;10.852;2023-10-08T14:21:43;6.85;;;3.13;;
41546;SDS011;27271;45.412;10.852;2023-10-08T14:25:33;8.70;;;3.20;;
41546;SDS011;27271;45.412;10.852;2023-10-08T14:29:13;7.72;;;4.10;;
41546;SDS011;27271;45.412;10.852;2023-10-08T14:36:57;5.15;;;2.85;;
41546;SDS011;27271;45.412;10.852;2023-10-08T14:40:50;6.28;;;2.83;;
41546;SDS011;27271;45.412;10.852;2023-10-08T14:44:33;4.53;;;2.38;;
41546;SDS011;27271;45.412;10.852;2023-10-08T14:51:49;5.25;;;3.35;;
41546;SDS011;27271;45.412;10.852;2023-10-08T14:55:30;10.90;;;3.70;;
41546;SDS011;27271;45.412;10.852;2023-10-08T14:58:58;8.40;;;4.30;;
41546;SDS011;27271;45.412;10.852;2023-10-08T15:02:25;9.45;;;4.25;;
41546;SDS011;27271;45.412;10.852;2023-10-08T15:05:52;5.97;;;3.25;;
41546;SDS011;27271;45.412;10.852;2023-10-08T15:09:15;6.40;;;3.17;;
41546;SDS011;27271;45.412;10.852;2023-10-08T15:12:43;8.32;;;3.15;;
41546;SDS011;27271;45.412;10.852;2023-10-08T15:16:06;2.60;;;2.33;;
41546;SDS011;27271;45.412;10.852;2023-10-08T15:19:28;6.50;;;3.13;;
41546;SDS011;27271;45.412;10.852;2023-10-08T15:22:50;4.75;;;2.70;;
41546;SDS011;27271;45.412;10.852;2023-10-08T15:26:13;8.07;;;2.90;;
41546;SDS011;27271;45.412;10.852;2023-10-08T15:29:35;8.50;;;3.50;;
41546;SDS011;27271;45.412;10.852;2023-10-08T15:32:59;5.40;;;2.83;;
41546;SDS011;27271;45.412;10.852;2023-10-08T15:36:21;6.97;;;3.47;;
41546;SDS011;27271;45.412;10.852;2023-10-08T15:39:44;6.70;;;2.40;;
41546;SDS011;27271;45.412;10.852;2023-10-08T15:43:08;9.60;;;3.10;;
41546;SDS011;27271;45.412;10.852;2023-10-08T15:46:33;10.43;;;3.05;;
41546;SDS011;27271;45.412;10.852;2023-10-08T15:49:56;7.38;;;3.42;;
41546;SDS011;27271;45.412;10.852;2023-10-08T15:53:20;4.53;;;3.22;;
41546;SDS011;27271;45.412;10.852;2023-10-08T15:56:42;15.45;;;5.03;;
41546;SDS011;27271;45.412;10.852;2023-10-08T16:00:05;7.65;;;3.40;;
41546;SDS011;27271;45.412;10.852;2023-10-08T16:03:29;7.72;;;3.15;;
41546;SDS011;27271;45.412;10.852;2023-10-08T16:06:51;8.25;;;3.70;;
41546;SDS011;27271;45.412;10.852;2023-10-08T16:10:13;8.82;;;4.05;;
41546;SDS011;27271;45.412;10.852;2023-10-08T16:13:36;9.68;;;2.85;;
41546;SDS011;27271;45.412;10.852;2023-10-08T16:17:00;7.72;;;4.25;;
41546;SDS011;27271;45.412;10.852;2023-10-08T16:20:25;9.23;;;3.78;;
41546;SDS011;27271;45.412;10.852;2023-10-08T16:23:48;7.72;;;4.22;;
41546;SDS011;27271;45.412;10.852;2023-10-08T16:27:10;5.50;;;3.33;;
41546;SDS011;27271;45.412;10.852;2023-10-08T16:30:32;5.22;;;3.17;;
41546;SDS011;27271;45.412;10.852;2023-10-08T16:33:55;6.57;;;3.38;;
41546;SDS011;27271;45.412;10.852;2023-10-08T16:37:17;4.88;;;2.78;;
41546;SDS011;27271;45.412;10.852;2023-10-08T16:40:43;6.95;;;2.95;;
41546;SDS011;27271;45.412;10.852;2023-10-08T16:44:08;8.80;;;4.25;;
41546;SDS011;27271;45.412;10.852;2023-10-08T16:47:33;4.10;;;3.50;;
41546;SDS011;27271;45.412;10.852;2023-10-08T16:50:58;6.25;;;2.88;;
41546;SDS011;27271;45.412;10.852;2023-10-08T16:54:23;6.78;;;3.28;;
41546;SDS011;27271;45.412;10.852;2023-10-08T16:57:46;10.50;;;3.45;;
41546;SDS011;27271;45.412;10.852;2023-10-08T17:01:08;5.15;;;2.92;;
41546;SDS011;27271;45.412;10.852;2023-10-08T17:04:31;9.15;;;3.10;;
41546;SDS011;27271;45.412;10.852;2023-10-08T17:07:53;5.50;;;3.10;;
41546;SDS011;27271;45.412;10.852;2023-10-08T17:11:17;8.35;;;3.78;;
41546;SDS011;27271;45.412;10.852;2023-10-08T17:14:41;4.78;;;2.55;;
41546;SDS011;27271;45.412;10.852;2023-10-08T17:18:03;4.07;;;2.50;;
41546;SDS011;27271;45.412;10.852;2023-10-08T17:21:27;6.43;;;2.28;;
41546;SDS011;27271;45.412;10.852;2023-10-08T17:24:50;3.65;;;2.50;;
41546;SDS011;27271;45.412;10.852;2023-10-08T17:28:12;3.53;;;2.35;;
41546;SDS011;27271;45.412;10.852;2023-10-08T17:31:39;8.85;;;2.90;;
41546;SDS011;27271;45.412;10.852;2023-10-08T17:35:02;5.45;;;2.53;;
41546;SDS011;27271;45.412;10.852;2023-10-08T17:38:28;3.40;;;2.00;;
41546;SDS011;27271;45.412;10.852;2023-10-08T17:41:52;9.18;;;3.90;;
41546;SDS011;27271;45.412;10.852;2023-10-08T17:45:15;8.75;;;4.38;;
41546;SDS011;27271;45.412;10.852;2023-10-08T17:48:44;8.57;;;3.45;;
41546;SDS011;27271;45.412;10.852;2023-10-08T17:52:07;5.40;;;3.75;;
41546;SDS011;27271;45.412;10.852;2023-10-08T17:55:32;8.05;;;4.13;;
41546;SDS011;27271;45.412;10.852;2023-10-08T17:58:54;9.20;;;3.30;;
41546;SDS011;27271;45.412;10.852;2023-10-08T18:02:16;4.30;;;2.30;;
41546;SDS011;27271;45.412;10.852;2023-10-08T18:05:42;8.65;;;3.28;;
41546;SDS011;27271;45.412;10.852;2023-10-08T18:09:06;5.00;;;3.03;;
41546;SDS011;27271;45.412;10.852;2023-10-08T18:12:32;13.63;;;2.58;;
41546;SDS011;27271;45.412;10.852;2023-10-08T18:15:54;9.13;;;3.45;;
41546;SDS011;27271;45.412;10.852;2023-10-08T18:19:16;4.85;;;3.72;;
41546;SDS011;27271;45.412;10.852;2023-10-08T18:22:40;8.50;;;3.72;;
41546;SDS011;27271;45.412;10.852;2023-10-08T18:26:05;7.25;;;3.47;;
41546;SDS011;27271;45.412;10.852;2023-10-08T18:29:31;8.48;;;3.75;;
41546;SDS011;27271;45.412;10.852;2023-10-08T18:32:53;8.05;;;3.45;;
41546;SDS011;27271;45.412;10.852;2023-10-08T18:36:16;4.68;;;3.22;;
41546;SDS011;27271;45.412;10.852;2023-10-08T18:39:38;7.97;;;3.90;;
41546;SDS011;27271;45.412;10.852;2023-10-08T18:43:00;7.45;;;3.80;;
41546;SDS011;27271;45.412;10.852;2023-10-08T18:46:26;5.25;;;3.58;;
41546;SDS011;27271;45.412;10.852;2023-10-08T18:49:51;6.05;;;2.78;;
41546;SDS011;27271;45.412;10.852;2023-10-08T18:53:33;4.43;;;3.20;;
41546;SDS011;27271;45.412;10.852;2023-10-08T18:56:56;6.18;;;3.53;;
41546;SDS011;27271;45.412;10.852;2023-10-08T19:00:21;3.40;;;2.33;;
41546;SDS011;27271;45.412;10.852;2023-10-08T19:03:43;9.93;;;3.30;;
41546;SDS011;27271;45.412;10.852;2023-10-08T19:07:06;3.33;;;2.67;;
41546;SDS011;27271;45.412;10.852;2023-10-08T19:10:28;3.05;;;2.15;;
41546;SDS011;27271;45.412;10.852;2023-10-08T19:13:52;6.75;;;3.30;;
41546;SDS011;27271;45.412;10.852;2023-10-08T19:17:14;3.67;;;2.33;;
41546;SDS011;27271;45.412;10.852;2023-10-08T19:20:38;4.72;;;2.08;;
41546;SDS011;27271;45.412;10.852;2023-10-08T19:24:00;8.10;;;3.55;;
41546;SDS011;27271;45.412;10.852;2023-10-08T19:27:26;4.00;;;2.58;;
41546;SDS011;27271;45.412;10.852;2023-10-08T19:30:50;6.70;;;3.10;;
41546;SDS011;27271;45.412;10.852;2023-10-08T19:34:14;3.88;;;2.55;;
41546;SDS011;27271;45.412;10.852;2023-10-08T19:37:37;3.92;;;2.20;;
41546;SDS011;27271;45.412;10.852;2023-10-08T19:40:59;3.85;;;3.03;;
41546;SDS011;27271;45.412;10.852;2023-10-08T19:44:21;4.25;;;2.40;;
41546;SDS011;27271;45.412;10.852;2023-10-08T19:47:44;3.42;;;1.80;;
41546;SDS011;27271;45.412;10.852;2023-10-08T19:51:11;3.30;;;2.58;;
41546;SDS011;27271;45.412;10.852;2023-10-08T19:54:35;5.05;;;2.45;;
41546;SDS011;27271;45.412;10.852;2023-10-08T19:57:58;5.32;;;2.70;;
41546;SDS011;27271;45.412;10.852;2023-10-08T20:01:20;11.40;;;4.65;;
41546;SDS011;27271;45.412;10.852;2023-10-08T20:04:44;6.35;;;3.30;;
41546;SDS011;27271;45.412;10.852;2023-10-08T20:08:07;4.07;;;2.70;;
41546;SDS011;27271;45.412;10.852;2023-10-08T20:11:32;8.45;;;3.60;;
41546;SDS011;27271;45.412;10.852;2023-10-08T20:14:55;9.98;;;4.07;;
41546;SDS011;27271;45.412;10.852;2023-10-08T20:18:19;8.30;;;4.35;;
41546;SDS011;27271;45.412;10.852;2023-10-08T20:21:45;8.07;;;4.35;;
41546;SDS011;27271;45.412;10.852;2023-10-08T20:25:10;6.57;;;3.55;;
41546;SDS011;27271;45.412;10.852;2023-10-08T20:28:36;7.10;;;3.13;;
41546;SDS011;27271;45.412;10.852;2023-10-08T20:31:58;11.52;;;4.10;;
41546;SDS011;27271;45.412;10.852;2023-10-08T20:35:23;14.95;;;4.70;;
41546;SDS011;27271;45.412;10.852;2023-10-08T20:38:50;5.15;;;3.15;;
41546;SDS011;27271;45.412;10.852;2023-10-08T20:42:13;6.95;;;3.72;;
41546;SDS011;27271;45.412;10.852;2023-10-08T20:45:40;7.57;;;3.83;;
41546;SDS011;27271;45.412;10.852;2023-10-08T20:49:03;8.52;;;4.55;;
41546;SDS011;27271;45.412;10.852;2023-10-08T20:52:28;5.68;;;3.72;;
41546;SDS011;27271;45.412;10.852;2023-10-08T20:55:51;9.00;;;4.70;;
41546;SDS011;27271;45.412;10.852;2023-10-08T20:59:14;7.57;;;4.25;;
41546;SDS011;27271;45.412;10.852;2023-10-08T21:02:36;13.43;;;5.75;;
41546;SDS011;27271;45.412;10.852;2023-10-08T21:05:59;6.68;;;4.05;;
41546;SDS011;27271;45.412;10.852;2023-10-08T21:09:26;10.93;;;5.13;;
41546;SDS011;27271;45.412;10.852;2023-10-08T21:12:51;10.35;;;5.80;;
41546;SDS011;27271;45.412;10.852;2023-10-08T21:16:15;9.35;;;4.53;;
41546;SDS011;27271;45.412;10.852;2023-10-08T21:19:37;12.25;;;6.40;;
41546;SDS011;27271;45.412;10.852;2023-10-08T21:23:02;9.60;;;5.07;;
41546;SDS011;27271;45.412;10.852;2023-10-08T21:26:30;8.60;;;5.45;;
41546;SDS011;27271;45.412;10.852;2023-10-08T21:29:53;10.15;;;4.95;;
41546;SDS011;27271;45.412;10.852;2023-10-08T21:33:15;6.80;;;5.60;;
41546;SDS011;27271;45.412;10.852;2023-10-08T21:36:37;9.65;;;4.53;;
41546;SDS011;27271;45.412;10.852;2023-10-08T21:40:00;7.65;;;4.78;;
41546;SDS011;27271;45.412;10.852;2023-10-08T21:43:31;12.23;;;5.30;;
41546;SDS011;27271;45.412;10.852;2023-10-08T21:46:53;8.20;;;4.25;;
41546;SDS011;27271;45.412;10.852;2023-10-08T21:50:17;7.40;;;4.95;;
41546;SDS011;27271;45.412;10.852;2023-10-08T21:53:40;11.55;;;7.22;;
41546;SDS011;27271;45.412;10.852;2023-10-08T21:57:02;14.07;;;7.22;;
41546;SDS011;27271;45.412;10.852;2023-10-08T22:00:24;5.65;;;5.00;;
41546;SDS011;27271;45.412;10.852;2023-10-08T22:03:50;8.38;;;5.03;;
41546;SDS011;27271;45.412;10.852;2023-10-08T22:07:15;7.97;;;4.75;;
41546;SDS011;27271;45.412;10.852;2023-10-08T22:10:41;11.18;;;5.90;;
41546;SDS011;27271;45.412;10.852;2023-10-08T22:14:06;11.35;;;6.72;;
41546;SDS011;27271;45.412;10.852;2023-10-08T22:21:26;21.80;;;6.43;;
41546;SDS011;27271;45.412;10.852;2023-10-08T22:24:51;9.85;;;5.47;;
41546;SDS011;27271;45.412;10.852;2023-10-08T22:28:17;11.10;;;6.90;;
